createdAt,value
2019-03-24T06:27:51.364Z,6.99
2019-03-24T06:27:51.866Z,6.99
2019-03-24T06:27:52.463Z,6.95
2019-03-24T06:27:53.063Z,7.05
2019-03-24T09:04:06.170Z,14.06
2019-03-24T09:04:06.672Z,14.16
2019-03-24T09:04:07.268Z,14.02
2019-03-24T09:04:07.869Z,14.07
2019-03-24T09:04:08.487Z,14.10
2019-03-24T09:04:09.066Z,14.02
2019-03-24T09:04:09.668Z,14.04
2019-03-24T09:04:10.267Z,14.09
2019-03-24T09:07:53.680Z,14.14
2019-03-24T09:07:54.250Z,14.10
2019-03-24T09:07:54.854Z,14.06
2019-03-24T09:08:58.489Z,14.07
2019-03-24T09:08:59.070Z,14.10
2019-03-24T09:08:59.670Z,14.17
2019-03-24T09:09:00.277Z,14.19
2019-03-24T09:09:00.871Z,14.09
2019-03-24T09:09:01.480Z,14.10
2019-03-24T09:09:02.070Z,14.10
2019-03-24T09:09:02.685Z,14.07
2019-03-24T09:13:45.572Z,14.27
2019-03-24T09:13:46.069Z,14.25
2019-03-24T09:13:46.668Z,14.31
2019-03-24T09:13:47.270Z,14.34
2019-03-24T09:13:47.867Z,14.29
2019-03-24T09:13:48.466Z,14.28
2019-03-24T09:13:49.067Z,14.31
2019-03-24T09:13:49.668Z,14.27
2019-03-24T09:13:50.266Z,14.29
2019-03-24T09:13:50.869Z,14.25
2019-03-24T09:13:51.468Z,14.24
2019-03-24T09:13:52.068Z,14.37
2019-03-24T09:13:52.667Z,14.32
2019-03-24T09:13:53.267Z,14.28
2019-03-24T09:14:58.339Z,14.25
2019-03-24T09:14:58.907Z,14.24
2019-03-24T09:14:59.504Z,14.21
2019-03-24T09:15:00.173Z,14.27
2019-03-24T09:15:00.707Z,14.19
2019-03-24T09:15:01.304Z,14.24
2019-03-24T09:16:06.814Z,14.43
2019-03-24T09:16:07.415Z,14.39
2019-03-24T09:16:08.012Z,14.34
2019-03-24T09:16:08.612Z,14.34
2019-03-24T09:16:09.211Z,14.39
2019-03-24T09:16:09.813Z,14.42
2019-03-24T09:17:44.982Z,14.47
2019-03-24T09:17:45.604Z,14.56
2019-03-24T09:17:46.219Z,14.56
2019-03-24T09:17:46.738Z,14.49
2019-03-24T09:17:47.387Z,14.60
2019-03-24T09:17:47.982Z,14.54
2019-03-24T09:19:28.545Z,13.63
2019-03-24T09:19:29.142Z,13.74
2019-03-24T09:19:29.740Z,13.71
2019-03-24T09:19:30.347Z,13.61
2019-03-24T09:19:30.940Z,13.71
2019-03-24T09:19:31.540Z,13.74
2019-03-24T09:19:32.143Z,13.63
2019-03-24T09:19:32.739Z,13.59
2019-03-24T09:19:33.342Z,13.74
2019-03-24T09:19:33.938Z,13.70
2019-03-24T09:19:34.538Z,13.67
2019-03-24T09:19:35.140Z,13.74
2019-03-24T09:19:35.737Z,13.76
2019-03-24T09:20:40.980Z,13.95
2019-03-24T09:20:41.215Z,13.87
2019-03-24T09:20:41.230Z,13.94
2019-03-24T09:20:41.263Z,13.88
2019-03-24T09:20:41.266Z,13.96
2019-03-24T09:20:41.523Z,13.92
2019-03-24T09:21:28.252Z,14.09
2019-03-24T09:21:28.848Z,14.06
2019-03-24T09:21:29.447Z,14.02
2019-03-24T09:21:30.050Z,13.96
2019-03-24T09:21:30.647Z,14.02
2019-03-24T09:21:31.254Z,14.02
2019-03-24T09:21:31.848Z,14.06
2019-03-24T09:22:25.394Z,14.13
2019-03-24T09:22:25.994Z,14.10
2019-03-24T09:22:26.591Z,14.14
2019-03-24T09:22:27.190Z,14.14
2019-03-24T09:22:27.790Z,14.13
2019-03-24T09:22:28.389Z,14.17
2019-03-24T09:22:28.988Z,14.27
2019-03-24T09:22:29.593Z,14.16
2019-03-24T09:23:24.067Z,14.21
2019-03-24T09:23:24.664Z,14.29
2019-03-24T09:23:25.289Z,14.24
2019-03-24T09:23:25.865Z,14.27
2019-03-24T09:23:26.464Z,14.31
2019-03-24T09:23:27.065Z,14.32
2019-03-24T09:23:27.663Z,14.35
2019-03-24T09:23:28.267Z,14.28
2019-03-24T09:24:23.258Z,14.56
2019-03-24T09:24:23.853Z,14.47
2019-03-24T09:24:24.452Z,14.39
2019-03-24T09:24:25.051Z,14.39
2019-03-24T09:24:25.659Z,14.47
2019-03-24T09:24:26.248Z,14.53
2019-03-24T09:25:25.328Z,14.61
2019-03-24T09:25:25.896Z,14.60
2019-03-24T09:25:26.473Z,14.56
2019-03-24T09:25:27.036Z,14.54
2019-03-24T09:25:27.659Z,14.53
2019-03-24T09:25:28.260Z,14.57
2019-03-24T09:25:28.881Z,14.64
2019-03-24T09:25:29.483Z,14.57
2019-03-24T09:25:30.025Z,14.50
2019-03-24T09:25:30.642Z,14.53
2019-03-24T09:25:31.263Z,14.54
2019-03-24T09:25:31.880Z,14.53
2019-03-24T09:25:32.499Z,14.50
2019-03-24T09:25:33.080Z,14.54
2019-03-24T09:25:33.669Z,14.60
2019-03-24T09:25:34.294Z,14.61
2019-03-24T09:25:34.891Z,14.60
2019-03-24T09:26:29.312Z,14.56
2019-03-24T09:26:29.939Z,14.49
2019-03-24T09:26:30.506Z,14.50
2019-03-24T09:26:31.118Z,14.50
2019-03-24T09:26:31.707Z,14.42
2019-03-24T09:26:32.308Z,14.42
2019-03-24T09:26:32.907Z,14.46
2019-03-24T09:27:26.859Z,14.50
2019-03-24T09:27:27.457Z,14.53
2019-03-24T09:27:28.059Z,14.44
2019-03-24T09:27:28.657Z,14.52
2019-03-24T09:27:29.258Z,14.43
2019-03-24T09:27:29.862Z,14.49
2019-03-24T09:27:30.456Z,14.50
2019-03-24T09:28:24.924Z,14.53
2019-03-24T09:28:25.519Z,14.56
2019-03-24T09:28:26.117Z,14.53
2019-03-24T09:28:26.724Z,14.54
2019-03-24T09:28:27.319Z,14.56
2019-03-24T09:28:27.922Z,14.56
2019-03-24T09:28:28.516Z,14.52
2019-03-24T09:28:29.121Z,14.47
2019-03-24T09:29:30.152Z,14.74
2019-03-24T09:29:30.748Z,14.78
2019-03-24T09:29:31.348Z,14.84
2019-03-24T09:29:31.946Z,14.83
2019-03-24T09:29:32.547Z,14.80
2019-03-24T09:29:33.146Z,14.84
2019-03-24T09:29:33.749Z,14.80
2019-03-24T09:29:34.356Z,14.81
2019-03-24T09:29:34.946Z,14.86
2019-03-24T09:29:35.547Z,14.87
2019-03-24T09:29:36.150Z,14.80
2019-03-24T09:29:36.746Z,14.72
2019-03-24T09:30:30.802Z,14.84
2019-03-24T09:30:31.370Z,14.88
2019-03-24T09:30:31.980Z,14.87
2019-03-24T09:30:32.569Z,14.78
2019-03-24T09:30:33.168Z,14.83
2019-03-24T09:30:33.783Z,14.87
2019-03-24T09:30:34.370Z,14.78
2019-03-24T09:31:38.460Z,14.95
2019-03-24T09:31:39.055Z,14.94
2019-03-24T09:31:39.655Z,15.11
2019-03-24T09:31:40.256Z,15.06
2019-03-24T09:31:40.857Z,15.08
2019-03-24T09:31:41.461Z,15.01
2019-03-24T09:31:42.055Z,15.11
2019-03-24T09:32:35.604Z,15.13
2019-03-24T09:32:36.203Z,15.11
2019-03-24T09:32:36.798Z,15.11
2019-03-24T09:32:37.406Z,15.09
2019-03-24T09:32:37.996Z,15.15
2019-03-24T09:32:38.613Z,15.15
2019-03-24T09:32:39.199Z,15.08
2019-03-24T09:32:39.797Z,15.08
2019-03-24T09:34:31.318Z,15.28
2019-03-24T09:34:31.908Z,15.36
2019-03-24T09:34:32.508Z,15.28
2019-03-24T09:34:33.108Z,15.36
2019-03-24T09:34:33.709Z,15.27
2019-03-24T09:34:34.313Z,15.27
2019-03-24T09:34:34.911Z,15.28
2019-03-24T09:34:35.509Z,15.30
2019-03-24T09:34:36.109Z,15.27
2019-03-24T09:34:36.709Z,15.30
2019-03-24T09:34:37.308Z,15.28
2019-03-24T09:35:50.799Z,15.24
2019-03-24T09:35:51.372Z,15.28
2019-03-24T09:35:51.973Z,15.38
2019-03-24T09:35:52.573Z,15.33
2019-03-24T09:35:53.173Z,15.30
2019-03-24T09:35:53.772Z,15.28
2019-03-24T09:35:54.381Z,15.28
2019-03-24T09:35:54.971Z,15.26
2019-03-24T09:47:34.313Z,15.02
2019-03-24T09:47:34.813Z,15.08
2019-03-24T09:47:35.413Z,14.98
2019-03-24T09:47:36.011Z,14.99
2019-03-24T09:47:36.618Z,14.94
2019-03-24T09:47:37.210Z,14.95
2019-03-24T09:47:37.811Z,15.01
2019-03-24T09:47:38.410Z,14.95
2019-03-24T09:47:39.012Z,14.94
2019-03-24T09:47:39.612Z,14.98
2019-03-24T09:48:36.634Z,15.15
2019-03-24T09:48:37.255Z,15.11
2019-03-24T09:48:37.832Z,15.20
2019-03-24T09:49:31.827Z,15.36
2019-03-24T09:49:32.426Z,15.28
2019-03-24T09:49:33.025Z,15.23
2019-03-24T09:49:33.624Z,15.31
2019-03-24T09:49:34.222Z,15.30
2019-03-24T09:49:34.822Z,15.26
2019-03-24T09:49:35.421Z,15.33
2019-03-24T09:50:29.911Z,15.43
2019-03-24T09:50:30.487Z,15.51
2019-03-24T09:50:31.084Z,15.45
2019-03-24T09:50:31.715Z,15.45
2019-03-24T09:50:32.282Z,15.48
2019-03-24T09:50:32.884Z,15.48
2019-03-24T09:50:33.483Z,15.49
2019-03-24T09:50:34.085Z,15.46
2019-03-24T09:51:29.076Z,15.60
2019-03-24T09:51:29.671Z,15.52
2019-03-24T09:51:30.272Z,15.59
2019-03-24T09:51:30.873Z,15.54
2019-03-24T09:51:31.472Z,15.57
2019-03-24T09:51:32.075Z,15.57
2019-03-24T09:52:41.581Z,15.60
2019-03-24T09:52:42.172Z,15.51
2019-03-24T09:52:42.771Z,15.59
2019-03-24T09:52:43.371Z,15.59
2019-03-24T09:52:43.971Z,15.49
2019-03-24T09:52:44.570Z,15.49
2019-03-24T09:52:45.170Z,15.54
2019-03-24T09:52:45.772Z,15.59
2019-03-24T09:52:46.374Z,15.64
2019-03-24T09:52:46.972Z,15.63
2019-03-24T09:52:47.570Z,15.63
2019-03-24T09:52:48.168Z,15.61
2019-03-24T09:52:48.772Z,15.68
2019-03-24T09:52:49.370Z,15.57
2019-03-24T09:52:49.970Z,15.64
2019-03-24T09:52:50.569Z,15.56
2019-03-24T09:53:46.087Z,15.74
2019-03-24T09:53:46.683Z,15.66
2019-03-24T09:53:47.283Z,15.74
2019-03-24T09:53:47.883Z,15.74
2019-03-24T09:53:48.483Z,15.64
2019-03-24T09:53:49.091Z,15.74
2019-03-24T09:53:49.682Z,15.75
2019-03-24T09:54:54.697Z,15.81
2019-03-24T09:54:55.293Z,15.82
2019-03-24T09:54:55.894Z,15.82
2019-03-24T09:54:56.492Z,15.84
2019-03-24T09:54:57.093Z,15.82
2019-03-24T09:54:57.697Z,15.85
2019-03-24T09:55:54.726Z,15.85
2019-03-24T09:55:55.302Z,15.85
2019-03-24T09:55:55.900Z,15.79
2019-03-24T09:57:02.088Z,15.61
2019-03-24T09:57:02.685Z,15.63
2019-03-24T09:57:03.283Z,15.67
2019-03-24T09:57:03.881Z,15.66
2019-03-24T09:57:04.477Z,15.57
2019-03-24T09:57:05.079Z,15.64
2019-03-24T09:57:05.678Z,15.60
2019-03-24T09:57:06.277Z,15.64
2019-03-24T09:58:02.808Z,15.26
2019-03-24T09:58:03.408Z,15.24
2019-03-24T09:58:04.005Z,15.36
2019-03-24T09:59:00.480Z,15.19
2019-03-24T09:59:01.055Z,15.20
2019-03-24T09:59:01.656Z,15.15
2019-03-24T10:00:08.279Z,15.35
2019-03-24T10:00:08.845Z,15.30
2019-03-24T10:00:09.447Z,15.26
2019-03-24T10:01:02.932Z,15.35
2019-03-24T10:01:03.528Z,15.33
2019-03-24T10:01:04.127Z,15.30
2019-03-24T10:01:04.730Z,15.28
2019-03-24T10:01:05.327Z,15.31
2019-03-24T10:01:05.926Z,15.28
2019-03-24T10:01:06.527Z,15.21
2019-03-24T10:01:07.127Z,15.28
2019-03-24T10:02:35.192Z,15.36
2019-03-24T10:02:35.794Z,15.30
2019-03-24T10:05:03.429Z,15.45
2019-03-24T10:05:03.931Z,15.43
2019-03-24T10:05:04.533Z,15.38
2019-03-24T10:05:05.129Z,15.43
2019-03-24T10:05:05.731Z,15.45
2019-03-24T10:05:06.340Z,15.38
2019-03-24T10:05:06.929Z,15.36
2019-03-24T10:05:07.525Z,15.45
2019-03-24T10:05:08.125Z,15.45
2019-03-24T10:05:08.726Z,15.42
2019-03-24T10:05:09.329Z,15.41
2019-03-24T10:05:09.926Z,15.46
2019-03-24T10:05:10.525Z,15.46
2019-03-24T10:05:11.126Z,15.45
2019-03-24T10:05:11.724Z,15.42
2019-03-24T10:05:12.328Z,15.41
2019-03-24T10:05:12.927Z,15.43
2019-03-24T10:05:13.525Z,15.46
2019-03-24T10:06:08.007Z,15.48
2019-03-24T10:06:08.579Z,15.46
2019-03-24T10:06:09.179Z,15.49
2019-03-24T10:06:09.777Z,15.46
2019-03-24T10:06:10.396Z,15.49
2019-03-24T10:06:10.976Z,15.51
2019-03-24T10:06:11.576Z,15.45
2019-03-24T10:06:12.176Z,15.48
2019-03-24T10:07:42.705Z,15.43
2019-03-24T10:07:43.300Z,15.41
2019-03-24T10:07:43.900Z,15.43
2019-03-24T10:07:44.501Z,15.42
2019-03-24T10:07:45.101Z,15.41
2019-03-24T10:07:45.699Z,15.35
2019-03-24T10:07:46.301Z,15.42
2019-03-24T10:07:46.899Z,15.42
2019-03-24T10:07:47.499Z,15.43
2019-03-24T10:07:48.099Z,15.39
2019-03-24T10:07:48.698Z,15.35
2019-03-24T10:07:49.298Z,15.43
2019-03-24T10:07:49.905Z,15.39
2019-03-24T10:08:48.447Z,15.23
2019-03-24T10:08:49.043Z,15.24
2019-03-24T10:08:49.647Z,15.26
2019-03-24T10:08:50.240Z,15.35
2019-03-24T10:08:50.842Z,15.23
2019-03-24T10:08:51.454Z,15.24
2019-03-24T10:08:52.041Z,15.30
2019-03-24T10:08:52.643Z,15.24
2019-03-24T10:08:53.238Z,15.26
2019-03-24T10:08:53.837Z,15.24
2019-03-24T10:08:54.451Z,15.30
2019-03-24T10:08:55.063Z,15.27
2019-03-24T10:08:55.639Z,15.21
2019-03-24T10:08:56.243Z,15.26
2019-03-24T10:08:56.853Z,15.26
2019-03-24T10:08:57.437Z,15.28
2019-03-24T10:10:48.377Z,14.98
2019-03-24T10:10:48.951Z,14.93
2019-03-24T10:10:49.553Z,14.93
2019-03-24T10:10:50.153Z,14.91
2019-03-24T10:10:50.755Z,14.98
2019-03-24T10:10:51.352Z,14.93
2019-03-24T10:10:51.959Z,14.98
2019-03-24T10:10:52.555Z,14.95
2019-03-24T10:10:53.156Z,14.91
2019-03-24T10:10:53.751Z,14.93
2019-03-24T10:10:54.352Z,14.94
2019-03-24T10:11:49.389Z,14.98
2019-03-24T10:11:50.013Z,15.03
2019-03-24T10:11:50.585Z,14.93
2019-03-24T10:11:51.218Z,14.90
2019-03-24T10:11:51.783Z,14.91
2019-03-24T10:11:52.396Z,15.02
2019-03-24T10:14:35.556Z,15.12
2019-03-24T10:14:36.056Z,15.19
2019-03-24T10:14:36.656Z,15.20
2019-03-24T10:14:37.255Z,15.13
2019-03-24T10:14:37.854Z,15.12
2019-03-24T10:14:38.454Z,15.19
2019-03-24T10:14:39.055Z,15.21
2019-03-24T10:14:39.655Z,15.11
2019-03-24T10:14:40.253Z,15.13
2019-03-24T10:14:40.853Z,15.13
2019-03-24T10:14:41.453Z,15.20
2019-03-24T10:14:42.062Z,15.12
2019-03-24T10:14:42.667Z,15.11
2019-03-24T10:15:37.694Z,15.24
2019-03-24T10:15:38.237Z,15.26
2019-03-24T10:15:38.833Z,15.27
2019-03-24T10:15:39.435Z,15.24
2019-03-24T10:15:40.041Z,15.23
2019-03-24T10:15:40.639Z,15.27
2019-03-24T10:17:43.469Z,15.09
2019-03-24T10:17:44.039Z,15.17
2019-03-24T10:17:44.636Z,15.12
2019-03-24T10:17:45.237Z,15.13
2019-03-24T10:17:45.838Z,15.05
2019-03-24T10:17:46.438Z,15.05
2019-03-24T10:17:47.036Z,15.11
2019-03-24T10:17:47.636Z,15.11
2019-03-24T10:17:48.235Z,15.09
2019-03-24T10:17:48.844Z,15.06
2019-03-24T10:17:49.437Z,15.19
2019-03-24T10:17:50.036Z,15.11
2019-03-24T10:18:44.112Z,14.95
2019-03-24T10:18:44.707Z,14.94
2019-03-24T10:18:45.307Z,15.05
2019-03-24T10:18:45.907Z,14.95
2019-03-24T10:18:46.506Z,14.95
2019-03-24T10:18:47.108Z,14.99
2019-03-24T10:18:47.707Z,15.03
2019-03-24T10:18:48.307Z,15.05
2019-03-24T10:19:41.767Z,15.13
2019-03-24T10:19:42.358Z,15.17
2019-03-24T10:19:42.959Z,15.15
2019-03-24T10:19:43.558Z,15.17
2019-03-24T10:19:44.160Z,15.13
2019-03-24T10:19:44.758Z,15.15
2019-03-24T10:19:45.357Z,15.11
2019-03-24T10:19:45.957Z,15.15
2019-03-24T10:20:39.434Z,15.12
2019-03-24T10:20:40.010Z,15.12
2019-03-24T10:20:40.610Z,15.15
2019-03-24T10:20:41.209Z,15.12
2019-03-24T10:20:41.811Z,15.15
2019-03-24T10:20:42.410Z,15.12
2019-03-24T10:20:43.010Z,15.24
2019-03-24T10:20:43.610Z,15.11
2019-03-24T10:21:37.064Z,15.23
2019-03-24T10:21:37.663Z,15.21
2019-03-24T10:21:38.265Z,15.27
2019-03-24T10:21:38.861Z,15.26
2019-03-24T10:21:39.462Z,15.30
2019-03-24T10:21:40.062Z,15.31
2019-03-24T10:21:40.663Z,15.24
2019-03-24T10:21:41.261Z,15.27
2019-03-24T10:22:34.717Z,15.35
2019-03-24T10:22:35.317Z,15.38
2019-03-24T10:22:35.914Z,15.39
2019-03-24T10:22:36.519Z,15.38
2019-03-24T10:22:37.114Z,15.33
2019-03-24T10:22:37.714Z,15.33
2019-03-24T10:22:38.315Z,15.35
2019-03-24T10:22:38.913Z,15.24
2019-03-24T10:23:32.370Z,15.42
2019-03-24T10:23:32.968Z,15.42
2019-03-24T10:23:33.567Z,15.31
2019-03-24T10:23:34.165Z,15.36
2019-03-24T10:23:34.767Z,15.28
2019-03-24T10:23:35.365Z,15.35
2019-03-24T10:23:35.965Z,15.35
2019-03-24T10:23:36.564Z,15.39
2019-03-24T10:24:30.021Z,15.31
2019-03-24T10:24:30.618Z,15.41
2019-03-24T10:24:31.218Z,15.33
2019-03-24T10:24:31.817Z,15.39
2019-03-24T10:24:32.421Z,15.43
2019-03-24T10:24:33.017Z,15.43
2019-03-24T10:24:33.617Z,15.43
2019-03-24T10:24:34.217Z,15.35
2019-03-24T10:25:27.680Z,15.41
2019-03-24T10:25:28.269Z,15.42
2019-03-24T10:25:28.872Z,15.41
2019-03-24T10:25:29.472Z,15.43
2019-03-24T10:25:30.070Z,15.42
2019-03-24T10:25:30.669Z,15.46
2019-03-24T10:25:31.270Z,15.45
2019-03-24T10:25:31.873Z,15.42
2019-03-24T10:26:26.373Z,15.38
2019-03-24T10:26:26.945Z,15.42
2019-03-24T10:26:27.545Z,15.49
2019-03-24T10:26:28.145Z,15.46
2019-03-24T10:26:28.787Z,15.52
2019-03-24T10:26:29.345Z,15.48
2019-03-24T10:26:29.949Z,15.48
2019-03-24T10:26:30.544Z,15.49
2019-03-24T10:27:24.000Z,15.52
2019-03-24T10:27:24.596Z,15.54
2019-03-24T10:27:25.197Z,15.49
2019-03-24T10:27:25.796Z,15.46
2019-03-24T10:27:26.396Z,15.51
2019-03-24T10:27:26.996Z,15.49
2019-03-24T10:27:27.595Z,15.52
2019-03-24T10:27:28.196Z,15.49
2019-03-24T10:28:22.674Z,15.51
2019-03-24T10:28:23.271Z,15.45
2019-03-24T10:28:23.872Z,15.54
2019-03-24T10:28:24.472Z,15.48
2019-03-24T10:28:25.070Z,15.48
2019-03-24T10:28:25.672Z,15.46
2019-03-24T10:28:26.271Z,15.51
2019-03-24T10:28:26.873Z,15.46
2019-03-24T10:29:21.352Z,15.45
2019-03-24T10:29:21.947Z,15.36
2019-03-24T10:29:22.548Z,15.45
2019-03-24T10:29:23.148Z,15.42
2019-03-24T10:29:23.746Z,15.48
2019-03-24T10:29:24.347Z,15.42
2019-03-24T10:29:24.947Z,15.43
2019-03-24T10:29:25.547Z,15.36
2019-03-24T10:30:19.004Z,15.36
2019-03-24T10:30:19.600Z,15.46
2019-03-24T10:30:20.200Z,15.49
2019-03-24T10:30:20.800Z,15.49
2019-03-24T10:30:21.400Z,15.45
2019-03-24T10:30:22.001Z,15.45
2019-03-24T10:30:22.621Z,15.51
2019-03-24T10:30:23.200Z,15.41
2019-03-24T10:31:17.709Z,15.36
2019-03-24T10:31:18.276Z,15.41
2019-03-24T10:31:18.874Z,15.39
2019-03-24T10:31:19.475Z,15.45
2019-03-24T10:31:20.075Z,15.46
2019-03-24T10:31:20.731Z,15.45
2019-03-24T10:31:21.273Z,15.46
2019-03-24T10:31:21.873Z,15.52
2019-03-24T10:32:15.331Z,15.45
2019-03-24T10:32:15.927Z,15.52
2019-03-24T10:32:16.526Z,15.43
2019-03-24T10:32:17.134Z,15.49
2019-03-24T10:32:17.727Z,15.46
2019-03-24T10:32:18.326Z,15.51
2019-03-24T10:32:18.926Z,15.48
2019-03-24T10:32:19.525Z,15.49
2019-03-24T10:33:12.982Z,15.43
2019-03-24T10:33:13.578Z,15.46
2019-03-24T10:33:14.179Z,15.46
2019-03-24T10:33:14.779Z,15.42
2019-03-24T10:33:15.380Z,15.43
2019-03-24T10:33:15.978Z,15.43
2019-03-24T10:33:16.578Z,15.43
2019-03-24T10:33:17.178Z,15.45
2019-03-24T10:34:11.146Z,15.26
2019-03-24T10:34:11.742Z,15.31
2019-03-24T10:34:12.342Z,15.24
2019-03-24T10:34:12.943Z,15.26
2019-03-24T10:34:13.542Z,15.28
2019-03-24T10:34:14.142Z,15.30
2019-03-24T10:34:14.741Z,15.28
2019-03-24T10:35:09.208Z,15.15
2019-03-24T10:35:09.803Z,15.24
2019-03-24T10:35:10.403Z,15.24
2019-03-24T10:35:11.002Z,15.23
2019-03-24T10:35:11.602Z,15.20
2019-03-24T10:35:12.210Z,15.21
2019-03-24T10:35:12.801Z,15.21
2019-03-24T10:35:13.401Z,15.11
2019-03-24T10:36:06.859Z,15.23
2019-03-24T10:36:07.455Z,15.27
2019-03-24T10:36:08.056Z,15.21
2019-03-24T10:36:08.656Z,15.23
2019-03-24T10:36:09.256Z,15.12
2019-03-24T10:36:09.855Z,15.23
2019-03-24T10:36:10.454Z,15.13
2019-03-24T10:36:11.055Z,15.24
2019-03-24T10:37:05.559Z,15.15
2019-03-24T10:37:06.130Z,15.15
2019-03-24T10:37:06.731Z,15.12
2019-03-24T10:37:07.331Z,15.15
2019-03-24T10:37:07.929Z,15.15
2019-03-24T10:37:08.531Z,15.19
2019-03-24T10:37:09.130Z,15.15
2019-03-24T10:37:09.730Z,15.09
2019-03-24T10:38:04.723Z,15.42
2019-03-24T10:38:05.322Z,15.42
2019-03-24T10:38:05.921Z,15.43
2019-03-24T10:38:06.518Z,15.42
2019-03-24T10:38:07.125Z,15.43
2019-03-24T10:38:07.716Z,15.46
2019-03-24T10:38:08.319Z,15.41
2019-03-24T10:39:01.870Z,15.68
2019-03-24T10:39:02.461Z,15.67
2019-03-24T10:39:03.060Z,15.66
2019-03-24T10:39:03.661Z,15.67
2019-03-24T10:39:04.260Z,15.64
2019-03-24T10:39:04.861Z,15.66
2019-03-24T10:39:05.458Z,15.75
2019-03-24T10:39:06.060Z,15.68
2019-03-24T10:40:00.540Z,15.79
2019-03-24T10:40:01.135Z,15.85
2019-03-24T10:40:01.734Z,15.82
2019-03-24T10:40:02.333Z,15.84
2019-03-24T10:40:02.934Z,15.81
2019-03-24T10:40:03.535Z,15.86
2019-03-24T10:40:04.133Z,15.85
2019-03-24T10:40:04.746Z,15.84
2019-03-24T10:40:58.189Z,15.84
2019-03-24T10:40:58.787Z,15.92
2019-03-24T10:40:59.386Z,15.86
2019-03-24T10:40:59.986Z,15.85
2019-03-24T10:41:00.585Z,15.88
2019-03-24T10:41:01.186Z,15.89
2019-03-24T10:41:01.785Z,15.88
2019-03-24T10:41:02.385Z,15.92
2019-03-24T10:41:56.897Z,15.89
2019-03-24T10:41:57.460Z,15.93
2019-03-24T10:41:58.061Z,15.88
2019-03-24T10:41:58.660Z,15.89
2019-03-24T10:41:59.260Z,15.89
2019-03-24T10:41:59.861Z,15.88
2019-03-24T10:42:00.460Z,15.89
2019-03-24T10:42:01.058Z,15.89
2019-03-24T10:42:55.540Z,16.00
2019-03-24T10:42:56.137Z,15.97
2019-03-24T10:42:56.736Z,15.97
2019-03-24T10:42:57.341Z,15.94
2019-03-24T10:42:57.937Z,16.00
2019-03-24T10:42:58.537Z,15.97
2019-03-24T10:42:59.137Z,15.97
2019-03-24T10:42:59.737Z,16.00
2019-03-24T10:43:54.215Z,16.18
2019-03-24T10:43:54.813Z,16.11
2019-03-24T10:43:55.414Z,16.11
2019-03-24T10:43:56.016Z,16.12
2019-03-24T10:43:56.613Z,16.11
2019-03-24T10:43:57.213Z,16.07
2019-03-24T10:43:57.813Z,16.09
2019-03-24T10:43:58.413Z,16.18
2019-03-24T10:44:51.869Z,16.38
2019-03-24T10:44:52.466Z,16.33
2019-03-24T10:44:53.066Z,16.25
2019-03-24T10:44:53.667Z,16.27
2019-03-24T10:44:54.266Z,16.30
2019-03-24T10:44:54.866Z,16.31
2019-03-24T10:44:55.464Z,16.25
2019-03-24T10:44:56.065Z,16.26
2019-03-24T10:45:49.520Z,16.31
2019-03-24T10:45:50.117Z,16.27
2019-03-24T10:45:50.718Z,16.31
2019-03-24T10:45:51.319Z,16.25
2019-03-24T10:45:51.917Z,16.26
2019-03-24T10:45:52.516Z,16.34
2019-03-24T10:45:53.117Z,16.26
2019-03-24T10:45:53.717Z,16.27
2019-03-24T10:46:48.194Z,16.40
2019-03-24T10:46:48.794Z,16.38
2019-03-24T10:46:49.391Z,16.41
2019-03-24T10:46:49.992Z,16.41
2019-03-24T10:46:50.592Z,16.42
2019-03-24T10:46:51.196Z,16.34
2019-03-24T10:46:51.791Z,16.37
2019-03-24T10:46:52.393Z,16.38
2019-03-24T10:47:45.870Z,16.35
2019-03-24T10:47:46.445Z,16.37
2019-03-24T10:47:47.045Z,16.35
2019-03-24T10:47:47.646Z,16.38
2019-03-24T10:47:48.245Z,16.35
2019-03-24T10:47:48.845Z,16.37
2019-03-24T10:47:49.443Z,16.41
2019-03-24T10:47:50.043Z,16.33
2019-03-24T10:48:44.522Z,16.33
2019-03-24T10:48:45.120Z,16.35
2019-03-24T10:48:45.720Z,16.35
2019-03-24T10:48:46.325Z,16.37
2019-03-24T10:48:46.920Z,16.35
2019-03-24T10:48:47.518Z,16.30
2019-03-24T10:48:48.167Z,16.27
2019-03-24T10:48:48.718Z,16.31
2019-03-24T10:49:43.198Z,16.23
2019-03-24T10:49:43.795Z,16.27
2019-03-24T10:49:44.394Z,16.26
2019-03-24T10:49:44.994Z,16.25
2019-03-24T10:49:45.595Z,16.23
2019-03-24T10:49:46.195Z,16.30
2019-03-24T10:49:46.796Z,16.30
2019-03-24T10:49:47.392Z,16.20
2019-03-24T10:50:40.850Z,16.06
2019-03-24T10:50:41.453Z,16.11
2019-03-24T10:50:42.047Z,16.11
2019-03-24T10:50:42.647Z,16.11
2019-03-24T10:50:43.250Z,16.12
2019-03-24T10:50:43.850Z,16.11
2019-03-24T10:50:44.447Z,15.97
2019-03-24T10:50:45.047Z,16.07
2019-03-24T10:51:51.200Z,15.86
2019-03-24T10:51:51.797Z,15.89
2019-03-24T10:51:52.406Z,15.88
2019-03-24T10:51:52.997Z,15.86
2019-03-24T10:51:53.596Z,15.94
2019-03-24T10:51:54.196Z,15.86
2019-03-24T10:51:54.797Z,15.97
2019-03-24T10:51:55.398Z,15.88
2019-03-24T10:52:49.907Z,15.84
2019-03-24T10:52:50.472Z,15.81
2019-03-24T10:52:51.071Z,15.92
2019-03-24T10:52:51.674Z,15.88
2019-03-24T10:52:52.271Z,15.84
2019-03-24T10:52:52.872Z,15.82
2019-03-24T10:52:53.471Z,15.82
2019-03-24T10:52:54.071Z,15.85
2019-03-24T10:53:47.530Z,15.88
2019-03-24T10:53:48.125Z,15.85
2019-03-24T10:53:48.724Z,15.86
2019-03-24T10:53:49.323Z,15.85
2019-03-24T10:53:49.924Z,15.85
2019-03-24T10:53:50.527Z,15.88
2019-03-24T10:53:51.128Z,15.78
2019-03-24T10:53:51.728Z,15.88
2019-03-24T10:54:45.180Z,15.66
2019-03-24T10:54:45.799Z,15.70
2019-03-24T10:54:46.375Z,15.66
2019-03-24T10:54:46.977Z,15.67
2019-03-24T10:54:47.575Z,15.70
2019-03-24T10:54:48.175Z,15.66
2019-03-24T10:54:48.777Z,15.70
2019-03-24T10:54:49.376Z,15.61
2019-03-24T10:55:42.833Z,15.67
2019-03-24T10:55:43.435Z,15.68
2019-03-24T10:55:44.030Z,15.66
2019-03-24T10:55:44.629Z,15.64
2019-03-24T10:55:45.232Z,15.60
2019-03-24T10:55:45.828Z,15.66
2019-03-24T10:55:46.429Z,15.67
2019-03-24T10:55:47.027Z,15.66
2019-03-24T10:56:40.487Z,15.54
2019-03-24T10:56:41.081Z,15.63
2019-03-24T10:56:41.679Z,15.51
2019-03-24T10:56:42.279Z,15.63
2019-03-24T10:56:42.880Z,15.63
2019-03-24T10:56:43.479Z,15.63
2019-03-24T10:56:44.079Z,15.59
2019-03-24T10:56:44.681Z,15.60
2019-03-24T10:57:38.136Z,15.38
2019-03-24T10:57:38.731Z,15.43
2019-03-24T10:57:39.331Z,15.39
2019-03-24T10:57:39.934Z,15.45
2019-03-24T10:57:40.532Z,15.36
2019-03-24T10:57:41.131Z,15.51
2019-03-24T10:57:41.730Z,15.46
2019-03-24T10:57:42.332Z,15.45
2019-03-24T10:58:36.835Z,15.33
2019-03-24T10:58:37.407Z,15.35
2019-03-24T10:58:38.006Z,15.41
2019-03-24T10:58:38.605Z,15.36
2019-03-24T10:58:39.205Z,15.39
2019-03-24T10:58:39.806Z,15.36
2019-03-24T10:58:40.411Z,15.43
2019-03-24T10:58:41.011Z,15.39
2019-03-24T10:59:35.508Z,15.24
2019-03-24T10:59:36.082Z,15.21
2019-03-24T10:59:36.681Z,15.15
2019-03-24T10:59:37.281Z,15.21
2019-03-24T10:59:37.882Z,15.21
2019-03-24T10:59:38.484Z,15.15
2019-03-24T10:59:39.080Z,15.19
2019-03-24T10:59:39.686Z,15.20
2019-03-24T11:00:34.167Z,14.87
2019-03-24T11:00:34.760Z,14.86
2019-03-24T11:00:35.358Z,14.87
2019-03-24T11:00:35.957Z,14.83
2019-03-24T11:00:36.558Z,14.84
2019-03-24T11:00:37.157Z,14.78
2019-03-24T11:00:37.757Z,14.83
2019-03-24T11:00:38.359Z,14.78
2019-03-24T11:01:31.814Z,14.68
2019-03-24T11:01:32.411Z,14.72
2019-03-24T11:01:33.010Z,14.68
2019-03-24T11:01:33.609Z,14.68
2019-03-24T11:01:34.210Z,14.74
2019-03-24T11:01:34.810Z,14.62
2019-03-24T11:01:35.409Z,14.61
2019-03-24T11:01:36.009Z,14.65
2019-03-24T11:02:30.489Z,14.44
2019-03-24T11:02:31.087Z,14.42
2019-03-24T11:02:31.683Z,14.43
2019-03-24T11:02:32.291Z,14.43
2019-03-24T11:02:32.884Z,14.43
2019-03-24T11:02:33.485Z,14.44
2019-03-24T11:02:34.085Z,14.43
2019-03-24T11:02:34.685Z,14.39
2019-03-24T11:03:28.172Z,14.27
2019-03-24T11:03:28.741Z,14.27
2019-03-24T11:03:29.340Z,14.27
2019-03-24T11:03:29.940Z,14.32
2019-03-24T11:03:30.544Z,14.35
2019-03-24T11:03:31.139Z,14.34
2019-03-24T11:03:31.738Z,14.32
2019-03-24T11:03:32.339Z,14.31
2019-03-24T11:04:25.792Z,14.25
2019-03-24T11:04:26.389Z,14.17
2019-03-24T11:04:26.989Z,14.14
2019-03-24T11:04:27.588Z,14.14
2019-03-24T11:04:28.187Z,14.17
2019-03-24T11:04:28.788Z,14.10
2019-03-24T11:04:29.387Z,14.17
2019-03-24T11:04:29.988Z,14.09